Time;durP1;ratioP1;P1;durP2;ratioP2;P2;SDS_P1;SDS_P2;PMS_P1;PMS_P2;Temp;Humidity;BMP_temperature;BMP_pressure;BME280_temperature;BME280_humidity;BME280_pressure;Samples;Min_cycle;Max_cycle;Signal;HPM_P1;HPM_P2
2022/03/08 00:00:10;;;;;;;;;30.25;27.25;;;;;2.14;47.86;100966.50;4997115;28;45520;-76
2022/03/08 00:02:36;;;;;;;;;37.00;31.00;;;;;2.11;48.41;100953.41;4997525;28;45413;-74
2022/03/08 00:05:01;;;;;;;;;33.75;30.50;;;;;2.10;48.08;100956.91;4993873;28;45417;-77
2022/03/08 00:07:28;;;;;;;;;33.75;32.50;;;;;2.05;48.33;100942.84;4994819;28;46280;-76
2022/03/08 00:09:55;;;;;;;;;41.00;36.50;;;;;2.06;48.20;100955.94;4996809;28;45380;-75
2022/03/08 00:12:21;;;;;;;;;39.25;32.00;;;;;2.06;48.63;100947.22;4978736;28;45369;-77
2022/03/08 00:14:46;;;;;;;;;29.75;28.00;;;;;1.87;48.49;100910.34;4995093;28;45597;-76
2022/03/08 00:17:12;;;;;;;;;39.25;28.75;;;;;2.02;48.14;100937.56;4995910;28;45376;-76
2022/03/08 00:19:37;;;;;;;;;37.75;32.75;;;;;2.04;48.38;100944.59;4993659;28;45463;-77
2022/03/08 00:22:03;;;;;;;;;44.50;34.50;;;;;2.02;48.00;100942.78;4996402;28;45417;-75
2022/03/08 00:24:28;;;;;;;;;24.50;21.25;;;;;1.98;48.39;100935.78;4995620;28;45604;-76
2022/03/08 00:26:53;;;;;;;;;36.50;31.75;;;;;1.99;48.93;100933.19;4996758;28;45417;-77
2022/03/08 00:29:19;;;;;;;;;29.25;29.25;;;;;2.00;48.25;100944.50;4994692;28;45406;-75
2022/03/08 00:31:44;;;;;;;;;35.00;31.75;;;;;1.95;48.68;100941.81;4990521;28;45468;-75
2022/03/08 00:34:09;;;;;;;;;27.75;27.00;;;;;1.92;48.78;100947.81;4981136;28;45388;-76
2022/03/08 00:36:35;;;;;;;;;31.50;31.50;;;;;1.93;49.10;100949.59;4995921;28;46514;-75
2022/03/08 00:39:01;;;;;;;;;33.25;28.75;;;;;1.88;49.23;100946.00;4995542;28;45530;-76
2022/03/08 00:41:26;;;;;;;;;31.75;27.25;;;;;1.89;48.80;100945.16;4994514;28;45332;-76
2022/03/08 00:43:51;;;;;;;;;34.50;33.25;;;;;1.90;49.12;100943.44;4994308;28;45309;-76
2022/03/08 00:46:17;;;;;;;;;41.75;34.25;;;;;1.92;49.20;100958.25;4995820;28;46007;-76
2022/03/08 00:48:44;;;;;;;;;36.50;30.50;;;;;1.89;48.87;100954.72;4994156;28;45933;-76
2022/03/08 00:51:10;;;;;;;;;38.75;30.00;;;;;1.86;49.29;100947.69;4981585;28;45352;-75
2022/03/08 00:53:35;;;;;;;;;38.00;33.50;;;;;1.82;49.45;100947.59;4995664;28;45663;-76
2022/03/08 00:56:01;;;;;;;;;37.00;25.50;;;;;1.71;49.76;100927.38;4996842;28;45427;-76
2022/03/08 00:58:26;;;;;;;;;41.00;30.00;;;;;1.72;49.37;100943.91;4995352;28;45985;-75
2022/03/08 01:00:52;;;;;;;;;35.25;26.00;;;;;1.65;49.88;100942.00;4995620;28;45423;-75
2022/03/08 01:03:17;;;;;;;;;37.50;33.50;;;;;1.66;49.79;100934.22;4995023;28;45424;-77
2022/03/08 01:05:43;;;;;;;;;36.25;33.75;;;;;1.68;49.66;100942.09;4993279;28;45588;-77
2022/03/08 01:08:09;;;;;;;;;51.75;39.25;;;;;1.63;50.00;100941.13;4995307;28;45501;-76
2022/03/08 01:10:35;;;;;;;;;40.50;30.75;;;;;1.64;49.92;100953.28;4995257;28;45586;-76
2022/03/08 01:13:00;;;;;;;;;26.50;24.25;;;;;1.57;50.22;100928.81;4994496;28;45522;-76
2022/03/08 01:15:27;;;;;;;;;25.00;23.00;;;;;1.60;49.68;100934.97;4995109;28;46111;-75
2022/03/08 01:17:54;;;;;;;;;41.25;28.50;;;;;1.56;50.11;100925.34;4995561;28;45359;-76
2022/03/08 01:20:21;;;;;;;;;31.00;28.75;;;;;1.58;50.38;100931.44;4980473;28;45371;-77
2022/03/08 01:22:46;;;;;;;;;33.00;29.25;;;;;1.55;50.05;100933.09;4976003;28;45584;-75
2022/03/08 01:25:14;;;;;;;;;30.75;30.00;;;;;1.53;49.82;100922.63;4983145;28;47489;-76
2022/03/08 01:27:40;;;;;;;;;30.00;29.50;;;;;1.51;50.42;100929.56;5005189;28;45357;-76
2022/03/08 01:30:08;;;;;;;;;39.25;31.25;;;;;1.49;49.85;100920.84;4977596;28;45392;-76
2022/03/08 01:32:34;;;;;;;;;41.50;34.00;;;;;1.48;50.96;100932.09;4995213;28;45426;-75
2022/03/08 01:34:59;;;;;;;;;32.75;31.25;;;;;1.46;50.00;100927.69;4993120;28;46237;-77
2022/03/08 01:37:25;;;;;;;;;36.50;32.75;;;;;1.42;50.09;100925.00;4995043;28;45410;-76
2022/03/08 01:39:50;;;;;;;;;25.00;24.50;;;;;1.36;50.18;100909.22;4994644;28;45724;-76
2022/03/08 01:42:20;;;;;;;;;37.25;30.25;;;;;1.42;50.76;100926.75;4995588;28;45412;-75
2022/03/08 01:44:46;;;;;;;;;34.50;33.25;;;;;1.40;50.82;100925.84;4994382;28;46258;-75
2022/03/08 01:47:14;;;;;;;;;38.00;29.00;;;;;1.39;51.06;100922.31;4994949;28;45510;-75
2022/03/08 01:49:40;;;;;;;;;41.25;33.25;;;;;1.35;50.33;100917.91;4984765;28;45393;-76
2022/03/08 01:52:06;;;;;;;;;37.50;32.25;;;;;1.35;51.40;100917.91;4976441;28;45321;-76
2022/03/08 01:54:32;;;;;;;;;40.75;33.75;;;;;1.34;50.56;100925.69;4980073;28;46434;-73
2022/03/08 01:56:57;;;;;;;;;34.50;32.50;;;;;1.33;50.66;100916.97;4995266;28;45372;-76
2022/03/08 01:59:22;;;;;;;;;27.50;25.75;;;;;1.33;50.58;100910.91;4995565;28;45452;-76
2022/03/08 02:01:48;;;;;;;;;42.00;34.00;;;;;1.32;50.51;100916.94;4976687;28;45401;-76
2022/03/08 02:04:14;;;;;;;;;29.50;24.50;;;;;1.29;51.23;100902.16;4988378;28;46818;-76
2022/03/08 02:06:39;;;;;;;;;39.00;31.25;;;;;1.24;50.46;100902.03;4974439;28;45498;-75
2022/03/08 02:09:04;;;;;;;;;29.50;23.25;;;;;1.29;50.90;100906.44;4975004;28;45424;-76
2022/03/08 02:11:30;;;;;;;;;32.50;28.00;;;;;1.26;51.26;100896.88;4974945;28;45509;-76
2022/03/08 02:13:55;;;;;;;;;41.00;32.00;;;;;1.22;50.95;100895.03;4974153;28;45805;-76
2022/03/08 02:16:21;;;;;;;;;31.50;27.75;;;;;1.23;51.43;100908.09;4986401;28;45518;-76
2022/03/08 02:18:47;;;;;;;;;29.00;24.75;;;;;1.21;51.08;100898.47;4992302;28;45584;-76
2022/03/08 02:21:12;;;;;;;;;38.75;27.75;;;;;1.20;51.44;100895.00;4980007;28;45523;-76
2022/03/08 02:23:38;;;;;;;;;41.25;35.00;;;;;1.18;51.11;100901.88;4993178;28;46115;-77
2022/03/08 02:26:04;;;;;;;;;39.25;29.25;;;;;1.16;51.43;100887.06;4994785;28;45387;-77
2022/03/08 02:28:29;;;;;;;;;39.25;32.00;;;;;1.15;51.75;100888.78;4976195;28;45261;-76
2022/03/08 02:30:55;;;;;;;;;37.75;32.25;;;;;1.14;51.62;100883.53;4993837;28;45388;-75
2022/03/08 02:33:21;;;;;;;;;35.50;31.50;;;;;1.10;51.34;100885.19;4994298;28;45563;-76
2022/03/08 02:35:47;;;;;;;;;33.25;27.00;;;;;1.09;51.36;100887.75;4991887;28;45595;-77
2022/03/08 02:38:12;;;;;;;;;37.50;33.50;;;;;1.05;51.30;100887.69;4993834;28;45469;-76
2022/03/08 02:40:40;;;;;;;;;32.75;31.00;;;;;1.05;51.94;100886.81;4993507;28;45542;-77
2022/03/08 02:43:06;;;;;;;;;34.75;32.50;;;;;0.93;51.48;100860.47;4994344;28;45885;-76
2022/03/08 02:45:33;;;;;;;;;44.00;33.50;;;;;1.00;52.36;100870.19;4995429;28;45466;-77
2022/03/08 02:47:58;;;;;;;;;30.25;27.25;;;;;1.04;52.35;100879.84;4995641;28;45421;-76
2022/03/08 02:50:24;;;;;;;;;33.25;29.00;;;;;1.01;51.96;100879.78;4979496;28;45361;-75
2022/03/08 02:52:51;;;;;;;;;39.50;33.50;;;;;1.00;51.87;100867.59;4987457;28;46073;-76
2022/03/08 02:55:19;;;;;;;;;35.00;29.75;;;;;0.98;52.25;100869.28;4992656;28;45356;-77
2022/03/08 02:57:44;;;;;;;;;36.00;27.25;;;;;1.00;51.79;100862.38;4993689;28;45353;-76
2022/03/08 03:00:13;;;;;;;;;36.50;32.50;;;;;0.96;52.23;100856.25;4994640;28;45342;-75
2022/03/08 03:02:39;;;;;;;;;36.50;32.50;;;;;0.98;52.48;100866.69;4994445;28;45388;-78
2022/03/08 03:05:05;;;;;;;;;36.00;30.25;;;;;0.96;52.11;100860.56;4978070;28;45435;-76
2022/03/08 03:07:32;;;;;;;;;32.00;27.25;;;;;0.91;51.94;100856.97;4997859;28;45438;-75
2022/03/08 03:09:58;;;;;;;;;39.25;31.75;;;;;0.93;52.27;100861.38;4996601;28;45376;-76
2022/03/08 03:12:23;;;;;;;;;36.50;32.50;;;;;0.89;52.10;100851.72;4997336;28;46100;-76
2022/03/08 03:14:49;;;;;;;;;33.25;28.50;;;;;0.90;52.71;100856.09;4996643;28;45452;-79
2022/03/08 03:17:14;;;;;;;;;36.25;33.50;;;;;0.89;52.40;100852.59;4979822;28;45498;-77
2022/03/08 03:19:40;;;;;;;;;27.00;24.75;;;;;0.89;52.15;100849.97;4986148;28;45484;-76
2022/03/08 03:22:05;;;;;;;;;40.25;31.50;;;;;0.89;51.87;100849.13;4996898;28;45417;-76
2022/03/08 03:24:31;;;;;;;;;42.75;30.25;;;;;0.86;52.48;100847.31;4996656;28;45372;-76
2022/03/08 03:26:56;;;;;;;;;31.25;29.50;;;;;0.87;52.40;100846.47;4996712;28;45424;-76
2022/03/08 03:29:21;;;;;;;;;41.25;33.50;;;;;0.83;52.70;100834.22;4996671;28;45571;-77
2022/03/08 03:31:47;;;;;;;;;39.00;31.25;;;;;0.84;52.74;100841.19;4996115;28;47219;-76
2022/03/08 03:34:12;;;;;;;;;34.50;28.50;;;;;0.80;52.61;100830.69;4973666;28;45829;-76
2022/03/08 03:36:38;;;;;;;;;35.50;33.25;;;;;0.81;53.05;100841.13;4976989;28;45378;-76
2022/03/08 03:39:05;;;;;;;;;21.75;19.25;;;;;0.81;53.03;100830.72;4991164;28;45293;-76
2022/03/08 03:41:30;;;;;;;;;31.75;29.50;;;;;0.79;52.48;100832.41;4997268;28;45646;-76
2022/03/08 03:43:56;;;;;;;;;34.00;30.75;;;;;0.77;52.91;100828.88;4996227;28;45644;-77
2022/03/08 03:46:21;;;;;;;;;42.00;33.50;;;;;0.74;53.05;100823.59;4996828;28;45398;-75
2022/03/08 03:48:47;;;;;;;;;50.50;36.50;;;;;0.70;52.85;100817.44;4977762;28;45425;-75
2022/03/08 03:51:14;;;;;;;;;44.50;32.75;;;;;0.73;53.04;100832.28;4979707;28;45994;-76
2022/03/08 03:53:40;;;;;;;;;33.75;28.00;;;;;0.70;53.56;100824.38;4977255;28;45380;-75
2022/03/08 03:56:05;;;;;;;;;46.75;37.00;;;;;0.70;53.48;100827.84;4976658;28;45645;-76
2022/03/08 03:58:30;;;;;;;;;34.00;29.00;;;;;0.72;53.70;100832.22;4996240;28;45386;-75
2022/03/08 04:00:56;;;;;;;;;39.75;35.25;;;;;0.71;53.41;100828.72;4995936;28;45499;-75
2022/03/08 04:03:21;;;;;;;;;42.00;30.75;;;;;0.68;53.66;100831.25;4979341;28;45454;-76
2022/03/08 04:05:47;;;;;;;;;29.00;22.00;;;;;0.65;53.77;100824.28;4976765;28;45634;-76
2022/03/08 04:08:12;;;;;;;;;37.00;29.75;;;;;0.65;53.50;100828.59;4976970;28;45537;-74
2022/03/08 04:10:38;;;;;;;;;28.25;27.00;;;;;0.64;53.64;100825.09;4976486;28;45465;-76
2022/03/08 04:13:04;;;;;;;;;38.75;31.00;;;;;0.60;53.72;100836.28;4975107;28;45505;-76
2022/03/08 04:15:29;;;;;;;;;38.25;33.50;;;;;0.60;53.59;100835.41;4980828;28;45488;-76
2022/03/08 04:17:55;;;;;;;;;37.50;33.00;;;;;0.60;53.79;100838.00;4994936;28;45617;-75
2022/03/08 04:20:20;;;;;;;;;45.75;36.50;;;;;0.55;53.59;100842.19;4995532;28;46096;-76
2022/03/08 04:22:46;;;;;;;;;24.50;21.00;;;;;0.53;53.64;100839.56;4996617;28;45349;-75
2022/03/08 04:25:11;;;;;;;;;33.50;30.25;;;;;0.48;54.04;100839.44;4977193;28;45392;-76
2022/03/08 04:27:37;;;;;;;;;43.50;36.00;;;;;0.41;54.15;100840.16;4995289;28;45594;-75
2022/03/08 04:30:05;;;;;;;;;33.25;31.00;;;;;0.37;54.16;100827.91;4995107;28;45891;-74
2022/03/08 04:32:31;;;;;;;;;15.50;9.25;;;;;0.35;54.37;100829.59;4996586;28;45408;-76
2022/03/08 04:34:56;;;;;;;;;37.75;27.00;;;;;0.35;54.19;100834.78;4994057;28;45528;-74
2022/03/08 04:37:22;;;;;;;;;37.25;29.50;;;;;0.36;54.41;100823.53;4996166;28;45446;-75
2022/03/08 04:39:47;;;;;;;;;42.50;33.75;;;;;0.35;54.36;100819.19;4979073;28;46519;-77
2022/03/08 04:42:12;;;;;;;;;42.75;36.50;;;;;0.33;54.34;100826.97;4996276;28;45333;-76
2022/03/08 04:44:38;;;;;;;;;30.50;25.00;;;;;0.31;54.48;100830.34;4984520;28;45437;-76
2022/03/08 04:47:03;;;;;;;;;44.25;34.25;;;;;0.31;54.42;100827.75;4958348;28;45394;-76
2022/03/08 04:49:29;;;;;;;;;34.00;27.75;;;;;0.27;54.53;100816.38;4982813;28;45389;-76
2022/03/08 04:51:54;;;;;;;;;38.50;36.25;;;;;0.23;54.47;100818.84;4995946;28;45387;-77
2022/03/08 04:54:19;;;;;;;;;34.75;33.50;;;;;0.25;54.68;100832.78;4997863;28;45507;-76
2022/03/08 04:56:45;;;;;;;;;35.75;32.50;;;;;0.24;54.67;100824.09;4999146;28;45504;-78
2022/03/08 04:59:10;;;;;;;;;42.75;34.75;;;;;0.22;54.84;100830.09;5015585;28;46284;-76
2022/03/08 05:01:36;;;;;;;;;36.50;32.50;;;;;0.24;54.43;100825.81;5015689;28;45380;-78
2022/03/08 05:04:01;;;;;;;;;14.00;12.75;;;;;0.22;54.73;100817.09;5010668;28;45425;-76
2022/03/08 05:06:30;;;;;;;;;38.50;35.00;;;;;0.22;55.12;100817.97;4995441;28;45339;-76
2022/03/08 05:08:55;;;;;;;;;39.50;31.50;;;;;0.25;55.13;100817.19;4995248;28;45479;-75
2022/03/08 05:11:21;;;;;;;;;36.00;30.00;;;;;0.20;54.92;100813.56;4995946;28;45349;-76
2022/03/08 05:13:46;;;;;;;;;33.75;30.25;;;;;0.19;55.28;100811.84;4996849;28;45426;-75
2022/03/08 05:16:11;;;;;;;;;39.00;30.00;;;;;0.20;55.10;100808.38;4996213;28;45434;-76
2022/03/08 05:18:37;;;;;;;;;37.25;30.50;;;;;0.21;54.76;100810.13;4984102;28;45351;-76
2022/03/08 05:21:02;;;;;;;;;37.75;33.25;;;;;0.21;54.90;100810.13;4995645;28;45278;-76
2022/03/08 05:23:28;;;;;;;;;39.75;34.50;;;;;0.21;55.25;100812.75;4996252;28;45411;-77
2022/03/08 05:25:53;;;;;;;;;32.75;29.50;;;;;0.20;55.14;100814.47;4995217;28;45313;-76
2022/03/08 05:28:18;;;;;;;;;33.25;29.75;;;;;0.20;54.81;100814.47;4994960;28;45396;-75
2022/03/08 05:30:45;;;;;;;;;34.00;30.00;;;;;0.20;54.65;100814.47;4966430;28;45406;-76
2022/03/08 05:33:10;;;;;;;;;23.50;15.50;;;;;0.15;55.04;100801.34;4975452;28;45421;-78
2022/03/08 05:35:36;;;;;;;;;29.75;24.50;;;;;0.20;55.16;100803.16;4990883;28;45383;-76
2022/03/08 05:38:01;;;;;;;;;39.50;34.00;;;;;0.18;55.25;100810.94;4995784;28;45634;-77
2022/03/08 05:40:27;;;;;;;;;58.75;37.00;;;;;0.21;55.35;100817.94;4995099;28;45449;-76
2022/03/08 05:42:53;;;;;;;;;32.00;30.25;;;;;0.20;55.31;100814.47;4986376;28;45364;-76
2022/03/08 05:45:18;;;;;;;;;37.25;34.25;;;;;0.19;55.39;100809.22;4976889;28;45396;-77
2022/03/08 05:47:43;;;;;;;;;37.25;31.50;;;;;0.17;55.33;100809.19;4958674;28;45907;-75
2022/03/08 05:50:11;;;;;;;;;37.25;30.50;;;;;0.16;55.58;100808.28;4988590;28;45809;-75
2022/03/08 05:52:36;;;;;;;;;31.50;30.75;;;;;0.16;55.44;100820.41;4995023;28;45424;-76
2022/03/08 05:55:04;;;;;;;;;36.25;33.00;;;;;0.15;55.40;100810.84;4993712;28;45385;-76
2022/03/08 05:57:30;;;;;;;;;38.75;31.75;;;;;0.13;55.69;100803.00;4994608;28;45450;-76
2022/03/08 05:59:55;;;;;;;;;37.50;35.00;;;;;0.15;55.78;100816.94;4995619;28;45445;-76
2022/03/08 06:02:21;;;;;;;;;31.75;30.25;;;;;0.11;55.76;100812.50;4994496;28;45400;-76
2022/03/08 06:04:46;;;;;;;;;39.50;32.50;;;;;0.12;55.75;100814.28;4985091;28;45433;-76
2022/03/08 06:07:12;;;;;;;;;39.00;34.25;;;;;0.11;55.66;100819.44;4975718;28;46116;-76
2022/03/08 06:09:37;;;;;;;;;33.75;29.75;;;;;0.11;56.04;100824.63;4975622;28;45445;-76
2022/03/08 06:12:03;;;;;;;;;45.00;36.25;;;;;0.14;55.81;100827.31;4976465;28;45482;-76
2022/03/08 06:14:29;;;;;;;;;41.75;34.50;;;;;0.12;55.92;100826.38;4976084;28;45444;-81
2022/03/08 06:16:55;;;;;;;;;33.00;31.75;;;;;0.12;55.88;100832.47;4976492;28;46137;-81
2022/03/08 06:19:20;;;;;;;;;37.00;30.00;;;;;0.14;55.69;100835.13;4976449;28;45457;-82
2022/03/08 06:21:46;;;;;;;;;49.75;33.00;;;;;0.15;55.85;100831.66;4976434;28;45646;-82
2022/03/08 06:24:12;;;;;;;;;42.75;33.25;;;;;0.14;55.21;100825.59;4976789;28;45370;-82
2022/03/08 06:26:38;;;;;;;;;28.50;23.50;;;;;0.17;55.68;100817.88;4978693;28;46137;-82
2022/03/08 06:29:04;;;;;;;;;39.00;34.00;;;;;0.37;55.47;100829.63;4981432;28;45298;-81
2022/03/08 06:31:30;;;;;;;;;38.75;31.50;;;;;0.47;54.89;100806.50;4999222;28;45491;-81
2022/03/08 06:33:55;;;;;;;;;45.75;36.00;;;;;0.92;54.27;100833.56;4996007;28;45576;-82
2022/03/08 06:36:21;;;;;;;;;38.25;31.75;;;;;1.24;53.64;100823.91;4977011;28;45546;-82
2022/03/08 06:38:46;;;;;;;;;41.25;35.50;;;;;1.63;52.73;100819.50;4998506;28;45528;-81
2022/03/08 06:41:12;;;;;;;;;38.50;33.25;;;;;1.99;51.48;100814.97;5004292;28;45699;-82
2022/03/08 06:43:39;;;;;;;;;40.25;36.75;;;;;2.37;51.16;100814.78;4999385;28;45556;-82
2022/03/08 06:46:05;;;;;;;;;39.50;37.50;;;;;2.69;50.08;100822.25;5001256;28;45588;-82
2022/03/08 06:48:30;;;;;;;;;42.50;35.00;;;;;3.10;48.48;100819.41;4986741;28;45537;-82
2022/03/08 06:50:56;;;;;;;;;48.00;43.50;;;;;3.53;47.73;100820.00;4969007;28;45433;-82
2022/03/08 06:53:21;;;;;;;;;40.25;37.00;;;;;3.97;46.54;100817.03;4982458;28;45482;-82
2022/03/08 06:55:46;;;;;;;;;49.25;44.00;;;;;4.31;45.79;100780.72;4977026;28;48475;-84
2022/03/08 06:58:12;;;;;;;;;38.75;32.00;;;;;4.92;44.90;100817.03;4984764;28;45507;-82
2022/03/08 07:00:37;;;;;;;;;44.00;35.75;;;;;5.40;43.76;100804.19;4977544;28;45472;-83
2022/03/08 07:03:02;;;;;;;;;49.00;37.25;;;;;5.82;43.09;100813.09;4990420;28;45483;-83
2022/03/08 07:05:28;;;;;;;;;40.25;32.75;;;;;6.28;41.43;100812.38;4996061;28;46306;-82
2022/03/08 07:07:53;;;;;;;;;43.25;37.25;;;;;6.92;40.22;100811.53;4978348;28;45294;-83
2022/03/08 07:10:18;;;;;;;;;43.25;37.00;;;;;7.55;39.53;100801.72;4995863;28;45338;-82
2022/03/08 07:12:44;;;;;;;;;44.00;40.75;;;;;8.09;38.22;100804.06;4988917;28;45532;-77
2022/03/08 07:15:09;;;;;;;;;40.25;38.50;;;;;8.61;37.70;100805.47;4973864;28;46222;-78
2022/03/08 07:17:35;;;;;;;;;46.25;43.00;;;;;9.07;36.71;100803.31;4974746;28;45909;-78
2022/03/08 07:20:01;;;;;;;;;39.25;35.75;;;;;9.54;36.28;100813.38;4983860;28;45559;-78
2022/03/08 07:22:27;;;;;;;;;48.50;41.25;;;;;9.82;35.10;100800.66;4974144;28;45424;-78
2022/03/08 07:24:54;;;;;;;;;50.00;42.00;;;;;10.26;34.17;100806.22;4978231;28;46247;-77
2022/03/08 07:27:19;;;;;;;;;46.50;40.50;;;;;10.75;33.68;100802.84;4991024;28;45471;-78
2022/03/08 07:29:46;;;;;;;;;38.50;32.50;;;;;11.14;33.01;100818.88;4982931;28;45707;-77
2022/03/08 07:32:12;;;;;;;;;48.50;41.50;;;;;11.34;32.41;100809.69;4985740;28;45435;-77
2022/03/08 07:34:37;;;;;;;;;47.75;38.75;;;;;11.79;31.61;100814.97;4968768;28;47294;-77
2022/03/08 07:37:03;;;;;;;;;44.50;40.25;;;;;11.93;31.09;100814.69;4984442;28;45376;-77
2022/03/08 07:39:28;;;;;;;;;45.00;41.75;;;;;11.81;31.13;100810.53;4987652;28;45320;-76
2022/03/08 07:41:54;;;;;;;;;46.25;41.50;;;;;12.11;30.65;100820.50;4984521;28;45377;-77
2022/03/08 07:44:19;;;;;;;;;46.00;41.00;;;;;12.37;30.47;100822.56;4990093;28;45973;-77
2022/03/08 07:46:44;;;;;;;;;50.00;41.75;;;;;12.54;29.35;100836.28;4990648;28;45355;-78
2022/03/08 07:49:10;;;;;;;;;52.50;43.00;;;;;12.68;29.81;100821.81;4980825;28;45380;-78
2022/03/08 07:51:35;;;;;;;;;36.50;33.50;;;;;13.05;29.32;100823.53;4991288;28;45634;-78
2022/03/08 07:54:01;;;;;;;;;50.00;40.25;;;;;13.05;28.69;100815.56;4989696;28;46582;-77
2022/03/08 07:56:26;;;;;;;;;53.50;43.00;;;;;13.48;28.80;100820.63;4995561;28;45397;-77
2022/03/08 07:58:52;;;;;;;;;46.75;40.00;;;;;14.00;28.25;100818.22;4984195;28;45530;-76
2022/03/08 08:01:18;;;;;;;;;43.25;39.75;;;;;14.06;28.14;100816.28;4987111;28;45482;-77
2022/03/08 08:03:43;;;;;;;;;50.50;40.00;;;;;14.47;27.78;100815.00;4989473;28;46014;-76
2022/03/08 08:06:09;;;;;;;;;57.75;42.50;;;;;14.74;26.90;100813.25;4978014;28;45461;-77
2022/03/08 08:08:34;;;;;;;;;43.25;39.25;;;;;14.80;26.56;100821.94;4982541;28;45549;-78
2022/03/08 08:11:00;;;;;;;;;44.75;40.75;;;;;14.96;26.41;100820.50;4970998;28;45461;-76
2022/03/08 08:13:25;;;;;;;;;51.50;40.50;;;;;15.12;26.33;100825.28;4986802;28;46517;-76
2022/03/08 08:15:50;;;;;;;;;43.75;37.00;;;;;15.56;25.80;100826.38;4991054;28;45520;-76
2022/03/08 08:18:16;;;;;;;;;49.00;38.50;;;;;15.70;24.92;100812.53;4975880;28;45457;-76
2022/03/08 08:20:41;;;;;;;;;45.00;39.50;;;;;15.81;25.43;100817.47;4980872;28;45587;-76
2022/03/08 08:23:06;;;;;;;;;41.25;33.00;;;;;15.94;25.45;100817.88;4993654;28;45579;-77
2022/03/08 08:25:32;;;;;;;;;48.50;40.50;;;;;16.03;24.96;100812.16;4985931;28;45416;-76
2022/03/08 08:27:57;;;;;;;;;41.00;38.00;;;;;16.14;24.85;100817.97;4966988;28;45521;-75
2022/03/08 08:30:23;;;;;;;;;43.00;37.75;;;;;16.38;24.81;100817.91;4963331;28;45647;-75
2022/03/08 08:32:50;;;;;;;;;29.50;24.25;;;;;15.85;24.90;100819.13;4967607;28;45510;-75
2022/03/08 08:35:17;;;;;;;;;48.25;40.25;;;;;16.19;25.33;100824.94;4984342;28;45598;-75
2022/03/08 08:37:42;;;;;;;;;41.00;35.00;;;;;16.48;24.40;100811.28;4958560;28;45426;-75
2022/03/08 08:40:08;;;;;;;;;48.25;40.00;;;;;16.48;24.62;100827.28;4983770;28;45476;-75
2022/03/08 08:42:34;;;;;;;;;54.25;40.25;;;;;16.46;24.61;100834.50;4993690;28;45474;-74
2022/03/08 08:44:59;;;;;;;;;50.00;40.25;;;;;16.63;24.18;100835.59;4992712;28;45472;-76
2022/03/08 08:47:25;;;;;;;;;46.75;37.50;;;;;16.76;24.06;100833.28;4977282;28;45815;-75
2022/03/08 08:49:50;;;;;;;;;52.50;44.25;;;;;16.67;24.18;100837.19;4967623;28;45548;-76
2022/03/08 08:52:16;;;;;;;;;50.00;40.75;;;;;16.79;23.76;100825.16;4993084;28;48234;-76
2022/03/08 08:54:41;;;;;;;;;42.25;35.75;;;;;16.89;24.18;100828.34;4987228;28;45527;-76
2022/03/08 08:57:07;;;;;;;;;60.00;47.50;;;;;16.89;23.84;100831.00;4974081;28;45425;-75
2022/03/08 08:59:32;;;;;;;;;52.00;42.00;;;;;16.50;24.34;100825.44;4980480;28;45407;-76
2022/03/08 09:01:58;;;;;;;;;54.75;40.50;;;;;16.77;24.30;100838.56;4986569;28;45769;-75
2022/03/08 09:04:23;;;;;;;;;41.00;37.00;;;;;16.96;24.08;100827.13;4980738;28;45777;-77
2022/03/08 09:06:49;;;;;;;;;42.25;37.75;;;;;17.39;23.88;100817.25;4994943;28;45870;-76
2022/03/08 09:09:15;;;;;;;;;44.75;38.25;;;;;17.33;23.37;100814.88;4979213;28;45448;-77
2022/03/08 09:11:40;;;;;;;;;43.25;38.50;;;;;17.25;24.11;100827.66;4960924;28;46143;-76
2022/03/08 09:14:06;;;;;;;;;43.00;40.00;;;;;17.30;23.86;100817.66;4990824;28;45436;-81
2022/03/08 09:16:31;;;;;;;;;48.50;39.50;;;;;17.66;23.93;100819.59;4972125;28;45426;-80
2022/03/08 09:18:57;;;;;;;;;52.50;42.00;;;;;17.92;23.36;100819.31;4986614;28;45429;-82
2022/03/08 09:21:22;;;;;;;;;52.00;42.25;;;;;18.13;23.16;100815.69;4977846;28;46089;-79
2022/03/08 09:23:48;;;;;;;;;53.25;41.00;;;;;18.07;23.27;100817.72;4979607;28;45428;-80
2022/03/08 09:26:13;;;;;;;;;47.25;38.00;;;;;17.97;23.35;100818.25;4982681;28;45444;-80
2022/03/08 09:28:39;;;;;;;;;55.75;42.00;;;;;18.18;23.11;100819.03;4993882;28;45376;-81
2022/03/08 09:31:04;;;;;;;;;48.50;39.25;;;;;18.02;23.18;100802.81;4992878;28;46166;-78
2022/03/08 09:33:30;;;;;;;;;46.50;39.75;;;;;18.19;23.06;100797.56;4994639;28;45428;-81
2022/03/08 09:35:55;;;;;;;;;46.25;38.50;;;;;18.34;22.80;100805.75;4981446;28;45637;-80
2022/03/08 09:38:21;;;;;;;;;47.00;39.75;;;;;18.36;22.86;100798.53;4986991;28;45564;-82
2022/03/08 09:40:50;;;;;;;;;41.25;36.00;;;;;18.57;22.88;100810.84;4985694;28;45609;-77
2022/03/08 09:43:16;;;;;;;;;48.25;41.50;;;;;18.87;22.70;100796.03;4983124;28;45428;-80
2022/03/08 09:45:41;;;;;;;;;52.50;43.25;;;;;19.05;21.96;100799.56;4991903;28;45672;-81
2022/03/08 09:48:07;;;;;;;;;50.25;41.00;;;;;18.58;23.04;100801.00;4992339;28;45356;-82
2022/03/08 09:50:33;;;;;;;;;40.25;34.50;;;;;18.64;22.82;100804.25;4988068;28;46210;-81
2022/03/08 09:52:58;;;;;;;;;51.00;43.00;;;;;19.09;22.69;100807.38;4983345;28;45522;-75
2022/03/08 09:55:25;;;;;;;;;47.25;41.25;;;;;19.12;22.34;100801.00;4990188;28;45552;-76
2022/03/08 09:57:52;;;;;;;;;47.75;38.25;;;;;19.39;22.53;100798.69;4986402;28;45488;-77
2022/03/08 10:00:18;;;;;;;;;54.00;41.50;;;;;19.68;22.25;100796.25;4990228;28;45400;-77
2022/03/08 10:02:47;;;;;;;;;52.00;42.25;;;;;19.56;21.93;100797.75;4979046;28;45362;-77
2022/03/08 10:05:13;;;;;;;;;51.00;41.50;;;;;19.58;22.15;100797.69;4983681;28;45464;-75
2022/03/08 10:07:39;;;;;;;;;47.75;41.00;;;;;19.55;22.29;100793.34;4987961;28;45502;-81
2022/03/08 10:10:04;;;;;;;;;59.50;45.50;;;;;19.74;21.88;100793.22;4996024;28;45400;-81
2022/03/08 10:12:30;;;;;;;;;50.75;41.25;;;;;19.79;21.86;100793.00;4987611;28;45975;-80
2022/03/08 10:14:55;;;;;;;;;56.25;42.75;;;;;19.99;21.86;100782.00;4985289;28;45430;-80
2022/03/08 10:17:38;;;;;;;;;55.00;42.50;;;;;19.89;21.92;100780.81;4996890;28;45539;-81
2022/03/08 10:20:09;;;;;;;;;56.25;47.25;;;;;20.06;21.76;100783.41;4987187;28;46324;-81
2022/03/08 10:22:41;;;;;;;;;55.75;45.75;;;;;20.01;21.59;100777.44;4987578;28;45387;-80
2022/03/08 10:25:15;;;;;;;;;54.50;45.00;;;;;20.26;21.76;100776.03;4984679;28;45491;-80
2022/03/08 10:27:42;;;;;;;;;54.50;46.50;;;;;20.32;21.53;100773.00;4990421;28;45436;-80
2022/03/08 10:30:12;;;;;;;;;43.25;34.75;;;;;19.70;21.64;100771.03;4989894;28;45573;-80
2022/03/08 10:32:38;;;;;;;;;57.00;44.75;;;;;19.82;21.88;100774.06;4960501;28;45418;-80
2022/03/08 10:35:04;;;;;;;;;52.25;44.50;;;;;19.82;22.26;100772.22;4989930;28;45392;-81
2022/03/08 10:37:38;;;;;;;;;51.50;42.00;;;;;19.99;22.08;100765.91;4979796;28;45441;-77
2022/03/08 10:40:09;;;;;;;;;48.25;41.00;;;;;20.02;21.50;100764.88;4994640;28;45439;-77
2022/03/08 10:42:39;;;;;;;;;63.50;50.25;;;;;19.80;22.24;100770.56;4982215;28;45586;-76
2022/03/08 10:45:05;;;;;;;;;46.75;40.75;;;;;20.02;22.16;100776.47;4978389;28;45557;-76
2022/03/08 10:47:45;;;;;;;;;60.00;47.25;;;;;20.19;22.03;100763.91;4979134;28;45533;-76
2022/03/08 10:50:13;;;;;;;;;57.50;44.00;;;;;20.11;21.49;100766.19;4990244;28;45430;-76
2022/03/08 10:52:40;;;;;;;;;57.50;43.75;;;;;19.96;22.14;100766.09;4980407;28;45420;-77
2022/03/08 10:55:16;;;;;;;;;53.25;45.00;;;;;19.87;22.61;100766.59;5000642;28;45467;-76
2022/03/08 10:57:50;;;;;;;;;50.25;41.50;;;;;20.09;22.58;100770.75;4999445;28;45460;-76
2022/03/08 11:00:17;;;;;;;;;45.25;41.00;;;;;20.17;22.24;100768.50;4978283;28;46580;-77
2022/03/08 11:02:56;;;;;;;;;57.00;44.75;;;;;20.20;22.02;100757.59;4960042;28;45496;-77
2022/03/08 11:05:24;;;;;;;;;61.75;48.00;;;;;19.73;22.30;100764.66;4979636;28;45517;-81
2022/03/08 11:07:50;;;;;;;;;45.75;39.75;;;;;19.78;22.54;100746.53;4978566;28;45464;-82